Time;durP1;ratioP1;P1;durP2;ratioP2;P2;SDS_P1;SDS_P2;PMS_P1;PMS_P2;Temp;Humidity;BMP_temperature;BMP_pressure;BME280_temperature;BME280_humidity;BME280_pressure;Samples;Min_cycle;Max_cycle;Signal;HPM_P1;HPM_P2
2021/05/21 19:04:00;;;;;;;4.30;2.40;;;;;;;;;;5083655;28;20385;-92
2021/05/21 19:06:51;;;;;;;4.53;2.38;;;;;;;;;;5089507;28;20403;-90
2021/05/21 19:12:38;;;;;;;6.40;2.40;;;;;;;;;;5087655;28;20388;-90
2021/05/21 19:18:03;;;;;;;4.72;2.25;;;;;;;;;;5093213;28;20394;-91
2021/05/21 19:20:32;;;;;;;3.30;2.35;;;;;;;;;;5092027;28;20466;-90
2021/05/21 19:23:11;;;;;;;4.70;2.43;;;;;;;;;;5090281;28;20857;-91
2021/05/21 19:25:39;;;;;;;5.07;2.45;;;;;;;;;;5088545;28;20834;-91
2021/05/21 19:28:17;;;;;;;4.50;2.45;;;;;;;;;;5094913;28;20399;-91
2021/05/21 19:31:11;;;;;;;5.07;2.67;;;;;;;;;;5088507;28;20467;-90
2021/05/21 19:33:56;;;;;;;5.93;2.50;;;;;;;;;;5087845;28;20409;-90
2021/05/21 19:37:00;;;;;;;3.63;2.35;;;;;;;;;;5087389;28;20397;-89
2021/05/21 19:39:35;;;;;;;3.97;2.20;;;;;;;;;;5085862;28;20455;-90
2021/05/21 19:44:55;;;;;;;4.22;2.40;;;;;;;;;;5086365;28;20456;-90
2021/05/21 19:47:34;;;;;;;2.42;2.15;;;;;;;;;;5083630;28;20453;-94
2021/05/21 19:58:59;;;;;;;4.10;2.03;;;;;;;;;;5077693;28;20427;-91
2021/05/21 20:11:50;;;;;;;3.33;2.10;;;;;;;;;;5071436;28;20383;-91
2021/05/21 20:12:50;;;;;;;4.53;2.33;;;;;;;;;;5074168;28;20417;-94
2021/05/21 20:15:17;;;;;;;3.00;2.20;;;;;;;;;;5077445;28;20857;-92
2021/05/21 20:17:44;;;;;;;3.45;2.15;;;;;;;;;;5074279;28;20424;-93
2021/05/21 20:20:13;;;;;;;4.68;2.15;;;;;;;;;;5072604;28;20398;-92
2021/05/21 20:22:39;;;;;;;2.65;2.05;;;;;;;;;;5075212;28;20809;-92
2021/05/21 20:25:13;;;;;;;3.50;2.00;;;;;;;;;;5074715;28;20401;-91
2021/05/21 20:27:47;;;;;;;3.40;2.17;;;;;;;;;;5072510;28;20419;-92
2021/05/21 20:30:20;;;;;;;3.50;2.15;;;;;;;;;;5072300;28;20406;-92
2021/05/21 20:32:50;;;;;;;2.83;2.17;;;;;;;;;;5075329;28;20442;-91
2021/05/21 20:54:54;;;;;;;2.73;2.13;;;;;;;;;;5092181;28;20471;-92
2021/05/21 21:00:27;;;;;;;3.53;2.10;;;;;;;;;;5089302;28;20411;-91
2021/05/21 21:06:04;;;;;;;2.80;2.08;;;;;;;;;;5052336;28;20843;-92
2021/05/21 21:08:37;;;;;;;3.50;2.17;;;;;;;;;;5090273;28;20448;-91
2021/05/21 21:13:51;;;;;;;3.30;2.30;;;;;;;;;;5087198;28;20946;-91
2021/05/21 21:16:22;;;;;;;2.80;2.22;;;;;;;;;;5092591;28;20409;-91
2021/05/21 21:18:55;;;;;;;3.22;2.10;;;;;;;;;;5091290;28;20426;-91
2021/05/21 21:21:46;;;;;;;2.30;1.90;;;;;;;;;;5093790;28;21015;-92
2021/05/21 21:27:11;;;;;;;3.53;2.00;;;;;;;;;;5089963;28;20388;-91
2021/05/21 21:30:01;;;;;;;2.47;2.00;;;;;;;;;;5091300;28;20477;-90
2021/05/21 21:49:18;;;;;;;4.28;2.30;;;;;;;;;;5094581;28;21039;-92
2021/05/21 21:51:56;;;;;;;3.47;2.08;;;;;;;;;;5090681;28;20542;-92
2021/05/21 21:54:33;;;;;;;3.85;1.92;;;;;;;;;;5090812;28;20400;-93
2021/05/21 21:57:12;;;;;;;4.18;2.20;;;;;;;;;;5094451;28;20406;-92
2021/05/21 21:59:40;;;;;;;3.92;2.00;;;;;;;;;;5093936;28;20729;-91
2021/05/21 22:02:12;;;;;;;2.85;2.00;;;;;;;;;;5090936;28;20410;-91
2021/05/21 22:04:43;;;;;;;4.38;2.10;;;;;;;;;;5090639;28;20889;-92
2021/05/21 22:07:24;;;;;;;2.50;2.10;;;;;;;;;;5092202;28;21071;-91
2021/05/21 22:10:15;;;;;;;2.50;1.92;;;;;;;;;;5094269;28;20415;-92
2021/05/21 22:12:48;;;;;;;2.20;1.70;;;;;;;;;;5082838;28;20398;-91
2021/05/21 22:15:30;;;;;;;3.00;1.77;;;;;;;;;;5091600;28;20388;-91
2021/05/21 22:18:15;;;;;;;2.00;1.70;;;;;;;;;;5084749;28;20521;-90
2021/05/21 22:20:52;;;;;;;3.40;2.08;;;;;;;;;;5092887;28;20509;-91
2021/05/21 22:23:31;;;;;;;2.90;2.08;;;;;;;;;;5100251;28;20446;-91
2021/05/21 22:25:59;;;;;;;3.37;2.00;;;;;;;;;;5087622;28;21397;-90
2021/05/21 22:28:26;;;;;;;2.67;1.92;;;;;;;;;;5087195;28;20451;-92
2021/05/21 22:30:53;;;;;;;2.00;1.80;;;;;;;;;;5085343;28;20408;-91
2021/05/21 22:33:19;;;;;;;2.45;1.80;;;;;;;;;;5093682;28;20397;-90
2021/05/21 22:35:45;;;;;;;2.13;1.90;;;;;;;;;;5083665;28;20401;-92
2021/05/21 22:38:12;;;;;;;1.80;1.70;;;;;;;;;;5085141;28;20398;-92
2021/05/21 22:40:39;;;;;;;1.85;1.70;;;;;;;;;;5094889;28;20400;-90
2021/05/21 22:43:06;;;;;;;2.05;1.77;;;;;;;;;;5086783;28;20394;-90
2021/05/21 22:45:33;;;;;;;2.25;1.63;;;;;;;;;;5091197;28;20382;-92
2021/05/21 22:47:59;;;;;;;2.05;1.65;;;;;;;;;;5081938;28;20390;-92
2021/05/21 22:50:26;;;;;;;1.90;1.70;;;;;;;;;;5087897;28;20478;-90
2021/05/21 22:52:52;;;;;;;2.70;1.65;;;;;;;;;;5088181;28;20449;-91
2021/05/21 22:55:19;;;;;;;2.25;1.70;;;;;;;;;;5093451;28;20938;-90
2021/05/21 22:57:45;;;;;;;2.05;1.73;;;;;;;;;;5092768;28;20437;-90
2021/05/21 23:00:14;;;;;;;2.00;1.80;;;;;;;;;;5095613;28;20394;-89
2021/05/21 23:02:41;;;;;;;2.13;1.90;;;;;;;;;;5091304;28;20489;-93
2021/05/21 23:05:08;;;;;;;2.30;1.75;;;;;;;;;;5081662;28;20394;-92
2021/05/21 23:07:35;;;;;;;3.22;1.65;;;;;;;;;;5089638;28;20407;-93
2021/05/21 23:10:01;;;;;;;1.97;1.60;;;;;;;;;;5094915;28;20533;-89
2021/05/21 23:12:28;;;;;;;1.98;1.73;;;;;;;;;;5095261;28;20404;-90
2021/05/21 23:14:54;;;;;;;1.60;1.50;;;;;;;;;;5095525;28;20392;-90
2021/05/21 23:17:21;;;;;;;2.72;1.80;;;;;;;;;;5095412;28;20397;-91
2021/05/21 23:19:48;;;;;;;1.73;1.60;;;;;;;;;;5079845;28;20883;-92
2021/05/21 23:22:14;;;;;;;1.70;1.60;;;;;;;;;;5076821;28;20409;-92
2021/05/21 23:24:41;;;;;;;2.83;1.70;;;;;;;;;;5075148;28;20705;-93
2021/05/21 23:27:07;;;;;;;1.65;1.42;;;;;;;;;;5085553;28;20404;-91
2021/05/21 23:29:34;;;;;;;2.20;1.83;;;;;;;;;;5074857;28;20806;-92
2021/05/21 23:32:00;;;;;;;1.83;1.60;;;;;;;;;;5082393;22;20908;-91
2021/05/21 23:34:30;;;;;;;2.00;1.60;;;;;;;;;;5062628;28;20868;-91
2021/05/21 23:36:56;;;;;;;2.22;1.60;;;;;;;;;;5069675;28;20405;-92
2021/05/21 23:39:24;;;;;;;1.67;1.57;;;;;;;;;;5068702;28;20415;-92
2021/05/21 23:41:52;;;;;;;1.60;1.50;;;;;;;;;;5071504;28;20403;-94
2021/05/21 23:44:19;;;;;;;2.22;1.77;;;;;;;;;;5064058;28;20909;-95
2021/05/21 23:46:48;;;;;;;1.85;1.70;;;;;;;;;;5055502;28;20951;-91
2021/05/21 23:49:18;;;;;;;2.05;1.65;;;;;;;;;;5065561;28;20408;-94
2021/05/21 23:51:45;;;;;;;2.10;1.80;;;;;;;;;;5058372;28;20425;-92
2021/05/21 23:54:15;;;;;;;1.70;1.60;;;;;;;;;;5061152;28;20495;-95
2021/05/21 23:56:43;;;;;;;2.33;1.80;;;;;;;;;;5065616;28;20877;-92
2021/05/21 23:59:12;;;;;;;1.52;1.42;;;;;;;;;;5064295;28;20879;-92
